KBBB/BBB METAR and TAF weather

Enter ICAO airport designator
Station Type Date Time Source
KBBB METAR 2021/02/25 15:55 UTC NOAA

KBBB 251555Z AUTO 29010KT 10SM CLR M02/M05 A3030 RMK AO2


Station Type Date Time Source
KBBB Decoded METAR 2021/02/25 15:55 UTC NOAA

Benson Municipal, MN, United States (KBBB) 45-19N 095-39W
Feb 25, 2021 - 10:55 AM EST / 2021.02.25 1555 UTC
Wind: from the WNW (290 degrees) at 12 MPH (10 KT):0
Visibility: 10 mile(s):0
Sky conditions: clear
Temperature: 28 F (-2 C)
Windchill: 17 F (-8 C):1
Dew Point: 23 F (-5 C)
Relative Humidity: 79%
Pressure (altimeter): 30.3 in. Hg (1026 hPa)
ob: KBBB 251555Z AUTO 29010KT 10SM CLR M02/M05 A3030 RMK AO2
cycle: 16

Station Type Date Time Source
KBBB TAF UTC NOAA

Error!

Example: see airport list